createdAt,value
2023-02-14T00:00:10.202Z,10.50
2023-02-14T00:02:38.139Z,11.47
2023-02-14T00:05:08.080Z,11.03
2023-02-14T00:07:35.988Z,10.00
2023-02-14T00:10:03.955Z,9.03
2023-02-14T00:12:31.879Z,7.77
2023-02-14T00:15:16.981Z,10.43
2023-02-14T00:17:44.896Z,7.93
2023-02-14T00:20:14.266Z,9.07
2023-02-14T00:22:42.206Z,8.93
2023-02-14T00:25:10.130Z,9.73
2023-02-14T00:27:38.080Z,9.00
2023-02-14T00:30:07.361Z,9.17
2023-02-14T00:32:35.303Z,8.23
2023-02-14T00:35:03.200Z,8.83
2023-02-14T00:37:32.470Z,8.97
2023-02-14T00:40:00.420Z,11.13
2023-02-14T00:42:28.414Z,11.50
2023-02-14T00:44:56.330Z,10.07
2023-02-14T00:47:24.278Z,10.20
2023-02-14T00:49:52.227Z,11.03
2023-02-14T00:52:20.175Z,11.17
2023-02-14T00:54:49.458Z,10.67
2023-02-14T00:57:17.378Z,8.70
2023-02-14T00:59:45.264Z,10.90
2023-02-14T01:02:13.209Z,11.53
2023-02-14T01:04:41.131Z,11.77
2023-02-14T01:07:09.007Z,11.80
2023-02-14T01:09:36.863Z,12.27
2023-02-14T01:12:06.758Z,12.53
2023-02-14T01:14:34.663Z,19.80
2023-02-14T01:17:02.584Z,13.90
2023-02-14T01:19:30.790Z,11.53
2023-02-14T01:21:58.699Z,10.50
2023-02-14T01:24:26.690Z,11.60
2023-02-14T01:26:54.583Z,8.83
2023-02-14T01:29:23.819Z,10.33
2023-02-14T01:31:51.728Z,10.73
2023-02-14T01:34:19.660Z,9.80
2023-02-14T01:36:47.552Z,10.63
2023-02-14T01:39:17.715Z,11.10
2023-02-14T01:41:48.552Z,9.97
2023-02-14T01:44:53.904Z,11.00
2023-02-14T01:47:23.503Z,12.27
2023-02-14T01:49:54.053Z,12.57
2023-02-14T01:52:25.274Z,11.80
2023-02-14T01:54:56.257Z,13.53
2023-02-14T01:57:26.009Z,12.20
2023-02-14T01:59:55.424Z,9.23
2023-02-14T02:02:24.782Z,8.97
2023-02-14T02:04:55.268Z,9.37
2023-02-14T02:07:25.920Z,8.00
2023-02-14T02:09:55.809Z,10.20
2023-02-14T02:12:23.932Z,8.17
2023-02-14T02:14:54.272Z,8.83
2023-02-14T02:17:27.998Z,13.63
2023-02-14T02:20:18.669Z,9.63
2023-02-14T02:23:17.666Z,8.37
2023-02-14T02:26:04.670Z,7.30
2023-02-14T02:29:03.294Z,8.10
2023-02-14T02:31:43.374Z,9.07
2023-02-14T02:34:41.570Z,10.00
2023-02-14T02:37:23.554Z,11.10
2023-02-14T02:40:03.130Z,12.30
2023-02-14T02:42:37.321Z,14.10
2023-02-14T02:45:12.522Z,11.77
2023-02-14T02:47:45.489Z,11.50
2023-02-14T02:50:38.357Z,12.03
2023-02-14T02:53:11.746Z,10.40
2023-02-14T02:56:01.690Z,10.70
2023-02-14T02:58:32.664Z,12.40
2023-02-14T03:01:02.667Z,11.83
2023-02-14T03:03:49.224Z,18.03
2023-02-14T03:06:17.119Z,12.30
2023-02-14T03:08:46.437Z,12.33
2023-02-14T03:11:14.819Z,13.10
2023-02-14T03:14:04.415Z,15.17
2023-02-14T03:16:35.846Z,10.90
2023-02-14T03:19:50.960Z,14.20
2023-02-14T03:22:24.711Z,13.00
2023-02-14T03:24:57.793Z,9.60
2023-02-14T03:27:28.656Z,9.50
2023-02-14T03:30:00.307Z,9.33
2023-02-14T03:32:32.985Z,9.97
2023-02-14T03:35:06.823Z,8.67
2023-02-14T03:37:40.184Z,7.63
2023-02-14T03:40:11.504Z,11.47
2023-02-14T03:42:42.917Z,10.77
2023-02-14T03:45:14.585Z,8.37
2023-02-14T03:47:44.673Z,7.90
2023-02-14T03:50:16.865Z,6.67
2023-02-14T03:52:46.039Z,8.53
2023-02-14T03:55:18.429Z,9.63
2023-02-14T03:57:50.667Z,8.37
2023-02-14T04:00:19.862Z,9.30
2023-02-14T04:02:50.342Z,9.40
2023-02-14T04:05:20.996Z,8.97
2023-02-14T04:07:50.814Z,8.40
2023-02-14T04:10:20.770Z,7.83
2023-02-14T04:12:49.097Z,8.00
2023-02-14T04:15:17.838Z,9.07
2023-02-14T04:18:03.055Z,8.97
2023-02-14T04:20:31.423Z,11.70
2023-02-14T04:22:59.961Z,20.23
2023-02-14T04:25:30.498Z,10.90
2023-02-14T04:27:58.386Z,9.37
2023-02-14T04:30:26.483Z,9.77
2023-02-14T04:32:54.451Z,9.07
2023-02-14T04:35:22.401Z,10.63
2023-02-14T04:37:50.279Z,9.87
2023-02-14T04:40:18.199Z,9.23
2023-02-14T04:42:47.832Z,7.97
2023-02-14T04:45:16.056Z,10.23
2023-02-14T04:47:43.962Z,8.40
2023-02-14T04:50:12.051Z,8.97
2023-02-14T04:52:40.134Z,11.50
2023-02-14T04:55:09.517Z,10.87
2023-02-14T04:57:37.606Z,10.67
2023-02-14T05:00:08.263Z,9.30
2023-02-14T05:02:36.175Z,9.90
2023-02-14T05:05:04.073Z,8.83
2023-02-14T05:07:31.980Z,9.40
2023-02-14T05:09:59.921Z,9.87
2023-02-14T05:12:28.069Z,9.23
2023-02-14T05:14:57.671Z,10.63
2023-02-14T05:17:27.082Z,10.97
2023-02-14T05:19:54.979Z,10.30
2023-02-14T05:22:22.877Z,12.30
2023-02-14T05:24:50.848Z,8.60
2023-02-14T05:27:18.770Z,13.53
2023-02-14T05:29:46.705Z,12.17
2023-02-14T05:32:14.687Z,10.60
2023-02-14T05:34:43.983Z,10.37
2023-02-14T05:37:11.934Z,10.57
2023-02-14T05:39:39.823Z,9.93
2023-02-14T05:44:35.534Z,11.10
2023-02-14T05:47:03.412Z,9.70
2023-02-14T05:49:31.361Z,9.00
2023-02-14T05:52:00.629Z,9.07
2023-02-14T05:54:28.559Z,9.43
2023-02-14T05:56:56.502Z,9.03
2023-02-14T05:59:24.411Z,9.77
2023-02-14T06:01:52.364Z,9.40
2023-02-14T06:04:20.292Z,9.20
2023-02-14T06:06:48.175Z,8.93
2023-02-14T06:09:17.579Z,10.47
2023-02-14T06:11:45.480Z,9.53
2023-02-14T06:14:13.447Z,9.07
2023-02-14T06:16:41.413Z,9.03
2023-02-14T06:19:09.450Z,7.83
2023-02-14T06:21:37.365Z,9.07
2023-02-14T06:24:05.500Z,8.50
2023-02-14T06:26:36.134Z,9.00
2023-02-14T06:29:05.034Z,9.37
2023-02-14T06:31:33.414Z,9.00
2023-02-14T06:34:01.458Z,7.70
2023-02-14T06:36:29.384Z,8.77
2023-02-14T06:38:57.301Z,10.20
2023-02-14T06:41:25.359Z,9.80
2023-02-14T06:43:54.612Z,8.80
2023-02-14T06:46:23.108Z,8.33
2023-02-14T06:48:51.118Z,11.53
2023-02-14T06:51:19.023Z,11.07
2023-02-14T06:53:46.947Z,10.57
2023-02-14T06:56:14.899Z,9.97
2023-02-14T06:58:42.813Z,9.50
2023-02-14T07:01:12.181Z,9.70
2023-02-14T07:03:40.118Z,11.23
2023-02-14T07:06:08.107Z,9.40
2023-02-14T07:08:36.014Z,9.93
2023-02-14T07:11:03.955Z,10.93
2023-02-14T07:13:31.859Z,10.70
2023-02-14T07:15:59.789Z,9.37
2023-02-14T07:18:29.120Z,21.40
2023-02-14T07:20:57.179Z,30.50
2023-02-14T07:23:25.102Z,31.93
2023-02-14T07:25:53.015Z,33.87
2023-02-14T07:28:22.015Z,24.13
2023-02-14T07:30:50.043Z,21.00
2023-02-14T07:33:18.009Z,23.03
2023-02-14T07:35:47.320Z,25.30
2023-02-14T07:38:15.234Z,24.20
2023-02-14T07:40:43.140Z,15.73
2023-02-14T07:43:11.043Z,13.87
2023-02-14T07:45:38.971Z,8.57
2023-02-14T07:48:07.533Z,7.57
2023-02-14T07:50:35.423Z,7.60
2023-02-14T07:53:04.722Z,7.03
2023-02-14T07:55:32.594Z,6.83
2023-02-14T07:58:00.550Z,7.10
2023-02-14T08:00:28.696Z,7.20
2023-02-14T08:02:57.114Z,7.47
2023-02-14T08:05:25.309Z,8.10
2023-02-14T08:07:53.300Z,9.10
2023-02-14T08:10:22.674Z,9.53
2023-02-14T08:13:03.623Z,11.20
2023-02-14T08:15:50.683Z,10.23
2023-02-14T08:18:19.437Z,10.53
2023-02-14T08:20:48.742Z,11.63
2023-02-14T08:23:18.454Z,12.10
2023-02-14T08:25:47.742Z,12.23
2023-02-14T08:28:15.799Z,11.87
2023-02-14T08:30:44.862Z,24.50
2023-02-14T08:33:12.880Z,14.50
2023-02-14T08:35:40.916Z,9.50
2023-02-14T08:38:09.263Z,11.50
2023-02-14T08:40:37.713Z,9.77
2023-02-14T08:43:07.599Z,10.80
2023-02-14T08:45:35.566Z,10.33
2023-02-14T08:48:05.073Z,9.70
2023-02-14T08:50:33.217Z,8.87
2023-02-14T08:53:01.510Z,9.77
2023-02-14T08:55:29.509Z,9.00
2023-02-14T08:57:58.072Z,8.80
2023-02-14T09:00:27.789Z,8.47
2023-02-14T09:02:55.790Z,9.00
2023-02-14T09:05:24.388Z,10.23
2023-02-14T09:07:52.567Z,10.10
2023-02-14T09:10:20.493Z,9.10
2023-02-14T09:12:48.382Z,9.23
2023-02-14T09:15:16.277Z,9.23
2023-02-14T09:17:45.727Z,10.97
2023-02-14T09:20:15.480Z,9.77
2023-02-14T09:22:43.576Z,8.07
2023-02-14T09:25:12.014Z,10.10
2023-02-14T09:27:40.046Z,9.53
2023-02-14T09:30:09.583Z,9.57
2023-02-14T09:32:37.567Z,9.27
2023-02-14T09:35:07.987Z,9.50
2023-02-14T09:37:53.226Z,8.70
2023-02-14T09:40:21.964Z,9.10
2023-02-14T09:43:02.009Z,9.57
2023-02-14T09:45:31.388Z,9.30
2023-02-14T09:48:02.839Z,10.50
2023-02-14T09:50:35.415Z,8.90
2023-02-14T09:53:08.260Z,8.63
2023-02-14T09:55:40.202Z,10.60
2023-02-14T09:58:14.764Z,9.30
2023-02-14T10:00:47.276Z,8.87
2023-02-14T10:04:02.732Z,9.10
2023-02-14T10:06:47.768Z,8.60
2023-02-14T10:09:32.623Z,9.40
2023-02-14T10:12:02.095Z,9.10
2023-02-14T10:14:33.941Z,9.10
2023-02-14T10:17:07.062Z,8.90
2023-02-14T10:19:39.467Z,8.83
2023-02-14T10:22:12.346Z,10.30
2023-02-14T10:24:43.746Z,10.93
2023-02-14T10:27:19.403Z,11.17
2023-02-14T10:29:47.367Z,12.53
2023-02-14T10:32:16.232Z,10.50
2023-02-14T10:34:48.185Z,10.73
2023-02-14T10:37:29.044Z,10.80
2023-02-14T10:40:10.667Z,10.67
2023-02-14T10:42:46.395Z,10.70
2023-02-14T10:45:19.925Z,10.63
2023-02-14T10:47:53.812Z,11.77
2023-02-14T10:50:25.987Z,11.37
2023-02-14T10:53:00.971Z,10.87
2023-02-14T10:55:38.335Z,11.10
2023-02-14T10:58:07.711Z,11.53
2023-02-14T11:00:36.980Z,11.03
2023-02-14T11:03:08.553Z,12.30
2023-02-14T11:05:38.933Z,12.20
2023-02-14T11:08:15.845Z,12.30
2023-02-14T11:10:43.830Z,12.20
2023-02-14T11:13:33.982Z,12.47
2023-02-14T11:16:03.812Z,12.77
2023-02-14T11:18:35.633Z,13.33
2023-02-14T11:21:06.087Z,13.40
2023-02-14T11:23:37.905Z,14.30
2023-02-14T11:26:08.356Z,15.43
2023-02-14T11:28:36.536Z,15.50
2023-02-14T11:31:05.210Z,15.20
2023-02-14T11:33:38.755Z,14.90
2023-02-14T11:36:11.892Z,15.70
2023-02-14T11:38:42.255Z,14.87
2023-02-14T11:41:11.716Z,16.40
2023-02-14T11:43:40.838Z,16.30
2023-02-14T11:46:15.269Z,15.83
2023-02-14T11:48:58.871Z,16.23
2023-02-14T11:51:29.210Z,16.90
2023-02-14T11:54:04.764Z,16.10
2023-02-14T11:56:48.889Z,16.53
2023-02-14T11:59:26.866Z,16.00
2023-02-14T12:01:55.385Z,17.87
2023-02-14T12:04:26.606Z,16.70
2023-02-14T12:07:14.441Z,16.80
2023-02-14T12:09:44.342Z,18.37
2023-02-14T12:12:19.002Z,17.53
2023-02-14T12:14:47.209Z,17.57
2023-02-14T12:17:30.103Z,16.93
2023-02-14T12:20:03.419Z,17.37
2023-02-14T12:22:35.256Z,16.60
2023-02-14T12:25:08.620Z,18.47
2023-02-14T12:27:45.591Z,17.83
2023-02-14T12:30:16.961Z,16.97
2023-02-14T12:32:49.145Z,19.13
2023-02-14T12:35:19.225Z,19.50
2023-02-14T12:38:03.966Z,21.73
2023-02-14T12:40:39.073Z,19.37
2023-02-14T12:43:33.679Z,20.97
2023-02-14T12:46:12.861Z,20.83
2023-02-14T12:48:54.346Z,21.03
2023-02-14T12:51:26.142Z,19.67
2023-02-14T12:54:02.414Z,21.00
2023-02-14T12:56:41.562Z,21.07
2023-02-14T12:59:19.178Z,20.93
2023-02-14T13:02:11.546Z,21.00
2023-02-14T13:04:55.503Z,20.30
2023-02-14T13:07:38.121Z,20.87
2023-02-14T13:10:14.566Z,20.57
2023-02-14T13:12:48.867Z,21.10
2023-02-14T13:15:23.541Z,23.60
2023-02-14T13:17:54.870Z,20.20
2023-02-14T13:20:35.410Z,22.60
2023-02-14T13:23:06.190Z,22.43
2023-02-14T13:25:40.492Z,22.60
2023-02-14T13:28:14.179Z,23.37
2023-02-14T13:30:43.180Z,22.63
2023-02-14T13:33:27.104Z,23.50
2023-02-14T13:35:58.090Z,21.50
2023-02-14T13:38:27.260Z,20.40
2023-02-14T13:40:56.098Z,22.10
2023-02-14T13:43:47.632Z,20.50
2023-02-14T13:46:16.684Z,22.07
2023-02-14T13:48:48.065Z,20.63
2023-02-14T13:51:15.975Z,19.17
2023-02-14T13:53:45.357Z,20.37
2023-02-14T13:56:34.632Z,23.13
2023-02-14T13:59:06.427Z,19.30
2023-02-14T14:01:40.550Z,19.77
2023-02-14T14:04:35.810Z,20.17
2023-02-14T14:07:23.171Z,20.50
2023-02-14T14:09:56.325Z,20.67
2023-02-14T14:12:45.879Z,20.47
2023-02-14T14:15:17.488Z,19.17
2023-02-14T14:17:50.054Z,20.10
2023-02-14T14:20:47.905Z,20.00
2023-02-14T14:23:43.297Z,18.87
2023-02-14T14:26:36.233Z,18.50
2023-02-14T14:29:11.390Z,19.60
2023-02-14T14:31:42.130Z,19.10
2023-02-14T14:34:17.488Z,20.23
2023-02-14T14:36:45.650Z,19.63
2023-02-14T14:39:13.636Z,19.70
2023-02-14T14:41:41.894Z,20.30
2023-02-14T14:44:09.843Z,17.90
2023-02-14T14:46:38.295Z,18.43
2023-02-14T14:49:10.778Z,20.77
2023-02-14T14:51:38.892Z,19.20
2023-02-14T14:54:08.482Z,19.30
2023-02-14T14:56:39.402Z,23.37
2023-02-14T14:59:21.282Z,19.60
2023-02-14T15:01:50.285Z,19.27
2023-02-14T15:04:20.898Z,19.13
2023-02-14T15:06:50.424Z,20.03
2023-02-14T15:09:23.843Z,19.37
2023-02-14T15:12:11.218Z,19.63
2023-02-14T15:14:42.442Z,19.00
2023-02-14T15:17:17.484Z,20.80
2023-02-14T15:19:48.651Z,20.37
2023-02-14T15:22:21.193Z,18.73
2023-02-14T15:24:49.541Z,22.00
2023-02-14T15:27:18.615Z,21.13
2023-02-14T15:29:55.316Z,21.20
2023-02-14T15:32:24.459Z,21.60
2023-02-14T15:34:53.951Z,23.60
2023-02-14T15:37:22.604Z,23.40
2023-02-14T15:39:52.430Z,23.63
2023-02-14T15:42:22.821Z,26.83
2023-02-14T15:44:50.768Z,24.10
2023-02-14T15:47:18.700Z,23.00
2023-02-14T15:49:47.585Z,23.73
2023-02-14T15:52:16.912Z,24.60
2023-02-14T15:54:46.454Z,26.70
2023-02-14T15:57:21.198Z,29.20
2023-02-14T15:59:49.192Z,25.63
2023-02-14T16:02:29.315Z,28.07
2023-02-14T16:05:04.774Z,28.47
2023-02-14T16:07:34.265Z,27.93
2023-02-14T16:10:21.745Z,29.03
2023-02-14T16:12:58.322Z,27.50
2023-02-14T16:15:27.403Z,33.23
2023-02-14T16:17:55.381Z,31.20
2023-02-14T16:20:39.827Z,31.50
2023-02-14T16:23:21.120Z,35.00
2023-02-14T16:25:49.771Z,34.43
2023-02-14T16:28:18.295Z,36.37
2023-02-14T16:30:48.064Z,38.87
2023-02-14T16:33:19.937Z,48.00
2023-02-14T16:35:48.018Z,28.43
2023-02-14T16:38:18.694Z,34.10
2023-02-14T16:40:48.355Z,31.80
2023-02-14T16:43:17.255Z,36.33
2023-02-14T16:45:45.913Z,38.33
2023-02-14T16:48:15.809Z,73.33
2023-02-14T16:50:44.505Z,39.20
2023-02-14T16:53:22.655Z,50.10
2023-02-14T16:55:50.954Z,38.17
2023-02-14T16:58:19.546Z,36.90
2023-02-14T17:00:47.477Z,42.23
2023-02-14T17:03:15.391Z,35.70
2023-02-14T17:05:43.442Z,35.20
2023-02-14T17:08:13.529Z,29.33
2023-02-14T17:10:43.174Z,43.73
2023-02-14T17:13:11.693Z,34.10
2023-02-14T17:15:40.845Z,35.17
2023-02-14T17:18:11.615Z,36.37
2023-02-14T17:20:39.711Z,28.70
2023-02-14T17:23:07.608Z,42.30
2023-02-14T17:25:35.611Z,40.03
2023-02-14T17:28:05.266Z,33.33
2023-02-14T17:30:33.208Z,37.77
2023-02-14T17:33:01.429Z,37.90
2023-02-14T17:35:30.015Z,39.13
2023-02-14T17:37:57.962Z,32.43
2023-02-14T17:40:25.867Z,39.03
2023-02-14T17:42:53.766Z,33.40
2023-02-14T17:45:23.330Z,36.97
2023-02-14T17:47:51.234Z,34.60
2023-02-14T17:50:19.203Z,36.00
2023-02-14T17:52:47.183Z,36.10
2023-02-14T17:55:15.814Z,36.20
2023-02-14T17:57:43.773Z,35.80
2023-02-14T18:00:14.179Z,33.37
2023-02-14T18:02:43.487Z,37.50
2023-02-14T18:05:12.287Z,35.63
2023-02-14T18:07:40.187Z,34.60
2023-02-14T18:10:08.826Z,36.93
2023-02-14T18:12:36.741Z,34.00
2023-02-14T18:15:05.629Z,31.17
2023-02-14T18:17:33.583Z,40.33
2023-02-14T18:20:03.359Z,39.57
2023-02-14T18:22:32.488Z,40.43
2023-02-14T18:25:00.407Z,36.47
2023-02-14T18:27:28.289Z,33.50
2023-02-14T18:29:56.550Z,29.90
2023-02-14T18:32:24.466Z,30.27
2023-02-14T18:34:52.493Z,27.10
2023-02-14T18:37:22.162Z,32.33
2023-02-14T18:39:50.069Z,32.50
2023-02-14T18:42:17.970Z,29.60
2023-02-14T18:44:45.851Z,32.77
2023-02-14T18:47:14.009Z,32.33
2023-02-14T18:49:41.879Z,38.43
2023-02-14T18:52:10.412Z,39.37
2023-02-14T18:54:39.719Z,52.60
2023-02-14T18:57:08.243Z,42.50
2023-02-14T18:59:36.148Z,34.03
2023-02-14T19:02:04.117Z,30.10
2023-02-14T19:04:32.225Z,29.53
2023-02-14T19:07:00.154Z,26.70
2023-02-14T19:09:29.480Z,25.33
2023-02-14T19:12:00.058Z,24.23
2023-02-14T19:14:28.187Z,24.10
2023-02-14T19:16:56.092Z,24.10
2023-02-14T19:19:24.118Z,22.07
2023-02-14T19:21:52.336Z,23.13
2023-02-14T19:24:21.220Z,23.10
2023-02-14T19:26:49.407Z,22.80
2023-02-14T19:29:20.242Z,23.93
2023-02-14T19:31:49.895Z,22.10
2023-02-14T19:34:19.139Z,24.53
2023-02-14T19:36:48.140Z,26.00
2023-02-14T19:39:16.659Z,27.03
2023-02-14T19:41:44.552Z,28.73
2023-02-14T19:44:14.786Z,30.13
2023-02-14T19:46:46.085Z,30.37
2023-02-14T19:49:15.772Z,31.10
2023-02-14T19:51:44.575Z,31.53
2023-02-14T19:54:12.983Z,32.70
2023-02-14T19:56:42.785Z,37.00
2023-02-14T19:59:11.187Z,35.97
2023-02-14T20:01:41.530Z,40.00
2023-02-14T20:04:14.660Z,43.87
2023-02-14T20:06:42.924Z,27.40
2023-02-14T20:09:10.941Z,27.00
2023-02-14T20:11:41.482Z,37.43
2023-02-14T20:14:10.026Z,66.33
2023-02-14T20:16:38.285Z,46.17
2023-02-14T20:19:11.977Z,25.97
2023-02-14T20:21:42.058Z,25.33
2023-02-14T20:24:10.616Z,25.27
2023-02-14T20:26:41.615Z,27.10
2023-02-14T20:29:11.237Z,24.13
2023-02-14T20:31:43.642Z,24.67
2023-02-14T20:34:12.188Z,47.77
2023-02-14T20:36:42.637Z,33.87
2023-02-14T20:39:11.394Z,23.50
2023-02-14T20:41:39.342Z,23.97
2023-02-14T20:44:09.068Z,22.17
2023-02-14T20:46:37.248Z,25.43
2023-02-14T20:49:05.483Z,24.53
2023-02-14T20:51:35.007Z,24.47
2023-02-14T20:54:05.529Z,29.80
2023-02-14T20:56:33.508Z,46.07
2023-02-14T20:59:01.766Z,51.07
2023-02-14T21:01:30.237Z,27.60
2023-02-14T21:03:58.266Z,24.17
2023-02-14T21:06:29.987Z,23.03
2023-02-14T21:08:58.543Z,25.43
2023-02-14T21:11:28.951Z,33.47
2023-02-14T21:13:59.559Z,27.47
2023-02-14T21:16:28.739Z,24.40
2023-02-14T21:18:59.566Z,21.73
2023-02-14T21:21:32.500Z,23.83
2023-02-14T21:24:01.340Z,24.20
2023-02-14T21:26:30.985Z,25.00
2023-02-14T21:28:58.878Z,26.17
2023-02-14T21:31:26.851Z,24.27
2023-02-14T21:33:57.262Z,22.47
2023-02-14T21:36:27.795Z,22.10
2023-02-14T21:38:58.014Z,21.23
2023-02-14T21:41:27.060Z,27.80
2023-02-14T21:43:57.404Z,25.50
2023-02-14T21:46:27.463Z,27.00
2023-02-14T21:49:13.170Z,25.17
2023-02-14T21:51:41.332Z,24.73
2023-02-14T21:54:09.673Z,24.33
2023-02-14T21:56:38.921Z,22.40
2023-02-14T21:59:08.993Z,23.10
2023-02-14T22:01:38.707Z,21.23
2023-02-14T22:04:09.179Z,23.10
2023-02-14T22:06:39.076Z,20.27
2023-02-14T22:09:07.403Z,21.80
2023-02-14T22:11:35.910Z,23.10
2023-02-14T22:14:03.964Z,22.07
2023-02-14T22:16:33.449Z,21.10
2023-02-14T22:19:01.338Z,23.00
2023-02-14T22:21:31.050Z,23.83
2023-02-14T22:23:59.083Z,25.07
2023-02-14T22:26:28.525Z,23.10
2023-02-14T22:28:59.158Z,24.33
2023-02-14T22:31:28.650Z,26.70
2023-02-14T22:33:57.935Z,24.93
2023-02-14T22:36:25.853Z,23.17
2023-02-14T22:38:54.041Z,22.57
2023-02-14T22:41:23.957Z,22.77
2023-02-14T22:43:52.730Z,20.80
2023-02-14T22:46:22.175Z,20.93
2023-02-14T22:48:50.917Z,22.70
2023-02-14T22:51:23.479Z,21.50
2023-02-14T22:53:54.072Z,21.57
2023-02-14T22:56:23.411Z,23.53
2023-02-14T22:58:57.984Z,22.63
2023-02-14T23:01:26.298Z,20.97
2023-02-14T23:03:54.788Z,20.30
2023-02-14T23:06:24.465Z,21.93
2023-02-14T23:08:52.659Z,23.87
2023-02-14T23:11:22.066Z,21.43
2023-02-14T23:14:06.434Z,22.17
2023-02-14T23:16:51.607Z,22.40
2023-02-14T23:19:38.317Z,22.70
2023-02-14T23:22:08.969Z,24.33
2023-02-14T23:24:37.007Z,25.67
2023-02-14T23:27:05.321Z,23.17
2023-02-14T23:29:33.547Z,23.40
2023-02-14T23:32:01.514Z,27.23
2023-02-14T23:34:31.292Z,23.73
2023-02-14T23:36:59.683Z,22.80
2023-02-14T23:39:29.096Z,25.43
2023-02-14T23:41:57.003Z,23.07
2023-02-14T23:44:26.025Z,22.87
2023-02-14T23:46:56.157Z,22.40
2023-02-14T23:49:24.828Z,21.40
2023-02-14T23:51:54.203Z,21.30
2023-02-14T23:54:23.842Z,24.20
2023-02-14T23:56:53.880Z,19.67
2023-02-14T23:59:22.999Z,19.30
